sensor_id;sensor_type;location;lat;lon;timestamp;P1;durP1;ratioP1;P2;durP2;ratioP2
68923;SDS011;55961;52.156;20.942;2023-08-31T00:00:54;10.30;;;5.72;;
68923;SDS011;55961;52.156;20.942;2023-08-31T00:03:30;9.43;;;5.97;;
68923;SDS011;55961;52.156;20.942;2023-08-31T00:05:57;9.27;;;5.97;;
68923;SDS011;55961;52.156;20.942;2023-08-31T00:08:23;8.48;;;5.13;;
68923;SDS011;55961;52.156;20.942;2023-08-31T00:10:58;9.35;;;5.57;;
68923;SDS011;55961;52.156;20.942;2023-08-31T00:13:28;8.75;;;5.25;;
68923;SDS011;55961;52.156;20.942;2023-08-31T00:15:55;10.17;;;5.10;;
68923;SDS011;55961;52.156;20.942;2023-08-31T00:18:22;8.38;;;4.90;;
68923;SDS011;55961;52.156;20.942;2023-08-31T00:20:49;8.98;;;5.03;;
68923;SDS011;55961;52.156;20.942;2023-08-31T00:23:16;9.68;;;5.00;;
68923;SDS011;55961;52.156;20.942;2023-08-31T00:25:42;9.37;;;4.93;;
68923;SDS011;55961;52.156;20.942;2023-08-31T00:28:09;9.18;;;4.80;;
68923;SDS011;55961;52.156;20.942;2023-08-31T00:30:35;9.70;;;4.78;;
68923;SDS011;55961;52.156;20.942;2023-08-31T00:33:01;12.90;;;4.88;;
68923;SDS011;55961;52.156;20.942;2023-08-31T00:35:27;8.88;;;4.80;;
68923;SDS011;55961;52.156;20.942;2023-08-31T00:37:54;9.40;;;4.43;;
68923;SDS011;55961;52.156;20.942;2023-08-31T00:40:24;10.77;;;4.70;;
68923;SDS011;55961;52.156;20.942;2023-08-31T00:42:51;11.98;;;5.75;;
68923;SDS011;55961;52.156;20.942;2023-08-31T00:45:17;10.52;;;4.60;;
68923;SDS011;55961;52.156;20.942;2023-08-31T00:47:45;10.73;;;4.70;;
68923;SDS011;55961;52.156;20.942;2023-08-31T00:50:12;8.93;;;4.60;;
68923;SDS011;55961;52.156;20.942;2023-08-31T00:52:39;11.75;;;4.72;;
68923;SDS011;55961;52.156;20.942;2023-08-31T00:55:06;7.35;;;3.92;;
68923;SDS011;55961;52.156;20.942;2023-08-31T00:57:33;7.95;;;4.78;;
68923;SDS011;55961;52.156;20.942;2023-08-31T00:59:59;7.57;;;4.25;;
68923;SDS011;55961;52.156;20.942;2023-08-31T01:10:37;7.95;;;4.25;;
68923;SDS011;55961;52.156;20.942;2023-08-31T01:13:24;6.53;;;3.75;;
68923;SDS011;55961;52.156;20.942;2023-08-31T01:15:52;7.37;;;4.67;;
68923;SDS011;55961;52.156;20.942;2023-08-31T01:18:21;7.55;;;4.28;;
68923;SDS011;55961;52.156;20.942;2023-08-31T01:23:56;6.97;;;4.10;;
68923;SDS011;55961;52.156;20.942;2023-08-31T01:26:24;7.97;;;4.53;;
68923;SDS011;55961;52.156;20.942;2023-08-31T01:28:51;7.80;;;4.20;;
68923;SDS011;55961;52.156;20.942;2023-08-31T01:31:17;7.47;;;4.35;;
68923;SDS011;55961;52.156;20.942;2023-08-31T01:33:44;8.25;;;4.70;;
68923;SDS011;55961;52.156;20.942;2023-08-31T01:39:24;9.13;;;5.13;;
68923;SDS011;55961;52.156;20.942;2023-08-31T01:41:51;8.90;;;4.97;;
68923;SDS011;55961;52.156;20.942;2023-08-31T01:44:21;9.50;;;4.60;;
68923;SDS011;55961;52.156;20.942;2023-08-31T01:46:52;8.85;;;4.53;;
68923;SDS011;55961;52.156;20.942;2023-08-31T01:49:21;8.13;;;4.97;;
68923;SDS011;55961;52.156;20.942;2023-08-31T01:51:47;11.73;;;4.78;;
68923;SDS011;55961;52.156;20.942;2023-08-31T01:54:13;11.10;;;5.57;;
68923;SDS011;55961;52.156;20.942;2023-08-31T01:56:39;9.50;;;4.93;;
68923;SDS011;55961;52.156;20.942;2023-08-31T01:59:05;9.23;;;4.80;;
68923;SDS011;55961;52.156;20.942;2023-08-31T02:01:34;7.10;;;4.50;;
68923;SDS011;55961;52.156;20.942;2023-08-31T02:03:59;8.60;;;5.30;;
68923;SDS011;55961;52.156;20.942;2023-08-31T02:06:25;7.60;;;4.82;;
68923;SDS011;55961;52.156;20.942;2023-08-31T02:08:51;7.93;;;4.85;;
68923;SDS011;55961;52.156;20.942;2023-08-31T02:11:17;7.70;;;5.07;;
68923;SDS011;55961;52.156;20.942;2023-08-31T02:13:43;9.52;;;4.97;;
68923;SDS011;55961;52.156;20.942;2023-08-31T02:16:09;9.10;;;5.30;;
68923;SDS011;55961;52.156;20.942;2023-08-31T02:18:35;9.80;;;5.27;;
68923;SDS011;55961;52.156;20.942;2023-08-31T02:21:01;10.57;;;5.28;;
68923;SDS011;55961;52.156;20.942;2023-08-31T02:23:28;7.35;;;4.60;;
68923;SDS011;55961;52.156;20.942;2023-08-31T02:25:54;9.10;;;4.90;;
68923;SDS011;55961;52.156;20.942;2023-08-31T02:28:20;7.80;;;4.83;;
68923;SDS011;55961;52.156;20.942;2023-08-31T02:30:57;8.07;;;4.93;;
68923;SDS011;55961;52.156;20.942;2023-08-31T02:33:24;7.75;;;4.50;;
68923;SDS011;55961;52.156;20.942;2023-08-31T02:35:50;9.85;;;4.38;;
68923;SDS011;55961;52.156;20.942;2023-08-31T02:38:16;7.90;;;5.00;;
68923;SDS011;55961;52.156;20.942;2023-08-31T02:40:45;8.63;;;5.05;;
68923;SDS011;55961;52.156;20.942;2023-08-31T02:43:12;8.13;;;5.15;;
68923;SDS011;55961;52.156;20.942;2023-08-31T02:45:38;7.30;;;4.55;;
68923;SDS011;55961;52.156;20.942;2023-08-31T02:48:06;8.70;;;4.67;;
68923;SDS011;55961;52.156;20.942;2023-08-31T02:50:34;7.40;;;4.78;;
68923;SDS011;55961;52.156;20.942;2023-08-31T02:53:00;7.93;;;4.65;;
68923;SDS011;55961;52.156;20.942;2023-08-31T02:55:26;9.27;;;4.70;;
68923;SDS011;55961;52.156;20.942;2023-08-31T02:57:52;8.30;;;5.03;;
68923;SDS011;55961;52.156;20.942;2023-08-31T03:00:19;9.00;;;4.68;;
68923;SDS011;55961;52.156;20.942;2023-08-31T03:02:48;7.25;;;4.57;;
68923;SDS011;55961;52.156;20.942;2023-08-31T03:05:17;8.65;;;4.82;;
68923;SDS011;55961;52.156;20.942;2023-08-31T03:07:44;7.53;;;4.10;;
68923;SDS011;55961;52.156;20.942;2023-08-31T03:10:11;9.13;;;4.68;;
68923;SDS011;55961;52.156;20.942;2023-08-31T03:12:37;10.00;;;4.78;;
68923;SDS011;55961;52.156;20.942;2023-08-31T03:15:03;11.52;;;5.93;;
68923;SDS011;55961;52.156;20.942;2023-08-31T03:17:31;9.45;;;5.43;;
68923;SDS011;55961;52.156;20.942;2023-08-31T03:19:57;9.13;;;5.43;;
68923;SDS011;55961;52.156;20.942;2023-08-31T03:22:22;8.60;;;4.55;;
68923;SDS011;55961;52.156;20.942;2023-08-31T03:24:48;8.43;;;5.28;;
68923;SDS011;55961;52.156;20.942;2023-08-31T03:27:14;8.80;;;4.83;;
68923;SDS011;55961;52.156;20.942;2023-08-31T03:29:41;9.60;;;4.93;;
68923;SDS011;55961;52.156;20.942;2023-08-31T03:32:07;10.30;;;4.80;;
68923;SDS011;55961;52.156;20.942;2023-08-31T03:34:33;9.18;;;4.57;;
68923;SDS011;55961;52.156;20.942;2023-08-31T03:36:59;7.30;;;4.43;;
68923;SDS011;55961;52.156;20.942;2023-08-31T03:39:25;8.07;;;4.38;;
68923;SDS011;55961;52.156;20.942;2023-08-31T03:41:51;7.57;;;4.25;;
68923;SDS011;55961;52.156;20.942;2023-08-31T03:44:17;10.30;;;5.30;;
68923;SDS011;55961;52.156;20.942;2023-08-31T03:46:43;9.35;;;4.90;;
68923;SDS011;55961;52.156;20.942;2023-08-31T03:49:09;7.60;;;4.10;;
68923;SDS011;55961;52.156;20.942;2023-08-31T03:51:35;6.63;;;3.87;;
68923;SDS011;55961;52.156;20.942;2023-08-31T03:54:01;8.00;;;4.40;;
68923;SDS011;55961;52.156;20.942;2023-08-31T03:56:27;8.40;;;3.90;;
68923;SDS011;55961;52.156;20.942;2023-08-31T03:58:53;7.32;;;4.20;;
68923;SDS011;55961;52.156;20.942;2023-08-31T04:01:19;8.33;;;3.80;;
68923;SDS011;55961;52.156;20.942;2023-08-31T04:03:45;8.65;;;4.25;;
68923;SDS011;55961;52.156;20.942;2023-08-31T04:06:11;6.80;;;4.20;;
68923;SDS011;55961;52.156;20.942;2023-08-31T04:08:37;8.20;;;4.15;;
68923;SDS011;55961;52.156;20.942;2023-08-31T04:11:03;8.50;;;3.80;;
68923;SDS011;55961;52.156;20.942;2023-08-31T04:13:29;5.80;;;3.45;;
68923;SDS011;55961;52.156;20.942;2023-08-31T04:15:55;7.93;;;3.50;;
68923;SDS011;55961;52.156;20.942;2023-08-31T04:18:21;6.13;;;3.42;;
68923;SDS011;55961;52.156;20.942;2023-08-31T04:20:51;7.10;;;4.10;;
68923;SDS011;55961;52.156;20.942;2023-08-31T04:23:18;8.48;;;4.35;;
68923;SDS011;55961;52.156;20.942;2023-08-31T04:25:45;9.73;;;3.42;;
68923;SDS011;55961;52.156;20.942;2023-08-31T04:28:13;6.47;;;3.95;;
68923;SDS011;55961;52.156;20.942;2023-08-31T04:30:39;6.43;;;3.35;;
68923;SDS011;55961;52.156;20.942;2023-08-31T04:33:06;7.23;;;3.53;;
68923;SDS011;55961;52.156;20.942;2023-08-31T04:35:32;7.35;;;4.20;;
68923;SDS011;55961;52.156;20.942;2023-08-31T04:37:59;7.70;;;4.28;;
68923;SDS011;55961;52.156;20.942;2023-08-31T04:40:25;7.80;;;3.65;;
68923;SDS011;55961;52.156;20.942;2023-08-31T04:42:53;8.43;;;4.47;;
68923;SDS011;55961;52.156;20.942;2023-08-31T04:45:19;7.53;;;3.87;;
68923;SDS011;55961;52.156;20.942;2023-08-31T04:47:45;6.10;;;3.72;;
68923;SDS011;55961;52.156;20.942;2023-08-31T04:50:11;7.00;;;3.53;;
68923;SDS011;55961;52.156;20.942;2023-08-31T04:52:37;6.33;;;3.70;;
68923;SDS011;55961;52.156;20.942;2023-08-31T04:55:05;6.40;;;3.58;;
68923;SDS011;55961;52.156;20.942;2023-08-31T04:57:34;7.55;;;4.30;;
68923;SDS011;55961;52.156;20.942;2023-08-31T05:00:00;6.32;;;3.58;;
68923;SDS011;55961;52.156;20.942;2023-08-31T05:02:28;6.90;;;3.67;;
68923;SDS011;55961;52.156;20.942;2023-08-31T05:04:54;7.00;;;3.55;;
68923;SDS011;55961;52.156;20.942;2023-08-31T05:07:20;9.15;;;3.65;;
68923;SDS011;55961;52.156;20.942;2023-08-31T05:09:46;5.95;;;3.13;;
68923;SDS011;55961;52.156;20.942;2023-08-31T05:12:12;7.53;;;3.77;;
68923;SDS011;55961;52.156;20.942;2023-08-31T05:14:38;6.38;;;3.45;;
68923;SDS011;55961;52.156;20.942;2023-08-31T05:17:05;6.20;;;4.28;;
68923;SDS011;55961;52.156;20.942;2023-08-31T05:19:31;7.07;;;3.83;;
68923;SDS011;55961;52.156;20.942;2023-08-31T05:21:57;5.60;;;3.27;;
68923;SDS011;55961;52.156;20.942;2023-08-31T05:24:23;7.25;;;3.70;;
68923;SDS011;55961;52.156;20.942;2023-08-31T05:26:49;8.30;;;3.75;;
68923;SDS011;55961;52.156;20.942;2023-08-31T05:29:15;6.90;;;3.33;;
68923;SDS011;55961;52.156;20.942;2023-08-31T05:31:41;7.53;;;3.75;;
68923;SDS011;55961;52.156;20.942;2023-08-31T05:34:09;6.57;;;3.58;;
68923;SDS011;55961;52.156;20.942;2023-08-31T05:36:36;5.57;;;3.28;;
68923;SDS011;55961;52.156;20.942;2023-08-31T05:39:02;6.73;;;3.20;;
68923;SDS011;55961;52.156;20.942;2023-08-31T05:41:28;8.45;;;4.88;;
68923;SDS011;55961;52.156;20.942;2023-08-31T05:43:54;8.23;;;3.85;;
68923;SDS011;55961;52.156;20.942;2023-08-31T05:46:20;8.35;;;3.88;;
68923;SDS011;55961;52.156;20.942;2023-08-31T05:48:46;7.00;;;3.40;;
68923;SDS011;55961;52.156;20.942;2023-08-31T05:51:12;6.32;;;3.72;;
68923;SDS011;55961;52.156;20.942;2023-08-31T05:53:38;5.27;;;3.20;;
68923;SDS011;55961;52.156;20.942;2023-08-31T05:56:04;6.00;;;2.80;;
68923;SDS011;55961;52.156;20.942;2023-08-31T05:58:31;6.40;;;3.13;;
68923;SDS011;55961;52.156;20.942;2023-08-31T06:00:58;7.32;;;2.65;;
68923;SDS011;55961;52.156;20.942;2023-08-31T06:03:24;5.05;;;2.60;;
68923;SDS011;55961;52.156;20.942;2023-08-31T06:05:51;6.00;;;2.80;;
68923;SDS011;55961;52.156;20.942;2023-08-31T06:08:16;4.70;;;2.42;;
68923;SDS011;55961;52.156;20.942;2023-08-31T06:10:43;4.82;;;2.08;;
68923;SDS011;55961;52.156;20.942;2023-08-31T06:13:08;5.87;;;2.30;;
68923;SDS011;55961;52.156;20.942;2023-08-31T06:15:34;6.57;;;1.90;;
68923;SDS011;55961;52.156;20.942;2023-08-31T06:18:00;3.72;;;1.98;;
68923;SDS011;55961;52.156;20.942;2023-08-31T06:20:26;4.35;;;1.83;;
68923;SDS011;55961;52.156;20.942;2023-08-31T06:22:52;5.37;;;1.80;;
68923;SDS011;55961;52.156;20.942;2023-08-31T06:25:18;4.68;;;2.25;;
68923;SDS011;55961;52.156;20.942;2023-08-31T06:27:44;4.93;;;2.25;;
68923;SDS011;55961;52.156;20.942;2023-08-31T06:30:11;4.87;;;1.77;;
68923;SDS011;55961;52.156;20.942;2023-08-31T06:32:42;4.18;;;1.90;;
68923;SDS011;55961;52.156;20.942;2023-08-31T06:35:12;4.10;;;1.73;;
68923;SDS011;55961;52.156;20.942;2023-08-31T06:37:39;4.93;;;1.88;;
68923;SDS011;55961;52.156;20.942;2023-08-31T06:40:05;7.03;;;2.90;;
68923;SDS011;55961;52.156;20.942;2023-08-31T06:42:34;6.57;;;2.13;;
68923;SDS011;55961;52.156;20.942;2023-08-31T06:45:03;5.20;;;2.08;;
68923;SDS011;55961;52.156;20.942;2023-08-31T06:47:30;5.55;;;2.60;;
68923;SDS011;55961;52.156;20.942;2023-08-31T06:49:57;4.47;;;2.08;;
68923;SDS011;55961;52.156;20.942;2023-08-31T06:52:23;5.22;;;2.33;;
68923;SDS011;55961;52.156;20.942;2023-08-31T06:54:50;6.13;;;2.50;;
68923;SDS011;55961;52.156;20.942;2023-08-31T06:57:20;4.43;;;2.00;;
68923;SDS011;55961;52.156;20.942;2023-08-31T06:59:47;4.68;;;2.03;;
68923;SDS011;55961;52.156;20.942;2023-08-31T07:02:13;4.72;;;2.40;;
68923;SDS011;55961;52.156;20.942;2023-08-31T07:04:40;3.42;;;1.88;;
68923;SDS011;55961;52.156;20.942;2023-08-31T07:07:06;5.00;;;1.90;;
68923;SDS011;55961;52.156;20.942;2023-08-31T07:09:34;8.20;;;2.55;;
68923;SDS011;55961;52.156;20.942;2023-08-31T07:12:00;5.68;;;1.80;;
68923;SDS011;55961;52.156;20.942;2023-08-31T07:14:29;4.35;;;1.80;;
68923;SDS011;55961;52.156;20.942;2023-08-31T07:16:54;3.57;;;1.70;;
68923;SDS011;55961;52.156;20.942;2023-08-31T07:19:20;6.18;;;1.98;;
68923;SDS011;55961;52.156;20.942;2023-08-31T07:21:46;4.33;;;2.20;;
68923;SDS011;55961;52.156;20.942;2023-08-31T07:24:13;5.53;;;2.60;;
68923;SDS011;55961;52.156;20.942;2023-08-31T07:26:39;4.78;;;2.30;;
68923;SDS011;55961;52.156;20.942;2023-08-31T07:29:05;3.53;;;1.92;;
68923;SDS011;55961;52.156;20.942;2023-08-31T07:31:31;6.10;;;1.87;;
68923;SDS011;55961;52.156;20.942;2023-08-31T07:33:57;5.13;;;2.00;;
68923;SDS011;55961;52.156;20.942;2023-08-31T07:36:24;4.53;;;1.58;;
68923;SDS011;55961;52.156;20.942;2023-08-31T07:38:50;5.28;;;2.05;;
68923;SDS011;55961;52.156;20.942;2023-08-31T07:41:16;4.70;;;2.13;;
68923;SDS011;55961;52.156;20.942;2023-08-31T07:43:42;3.47;;;1.80;;
68923;SDS011;55961;52.156;20.942;2023-08-31T07:46:08;3.83;;;1.90;;
68923;SDS011;55961;52.156;20.942;2023-08-31T07:48:34;5.22;;;1.88;;
68923;SDS011;55961;52.156;20.942;2023-08-31T07:51:00;5.73;;;1.87;;
68923;SDS011;55961;52.156;20.942;2023-08-31T07:53:26;3.25;;;1.85;;
68923;SDS011;55961;52.156;20.942;2023-08-31T07:55:52;4.72;;;1.90;;
68923;SDS011;55961;52.156;20.942;2023-08-31T07:58:22;5.00;;;1.60;;
68923;SDS011;55961;52.156;20.942;2023-08-31T08:00:48;3.25;;;1.50;;
68923;SDS011;55961;52.156;20.942;2023-08-31T08:03:17;3.38;;;1.55;;
68923;SDS011;55961;52.156;20.942;2023-08-31T08:05:43;4.53;;;1.20;;
68923;SDS011;55961;52.156;20.942;2023-08-31T08:08:09;3.63;;;1.43;;
68923;SDS011;55961;52.156;20.942;2023-08-31T08:10:35;3.17;;;1.58;;
68923;SDS011;55961;52.156;20.942;2023-08-31T08:13:02;5.15;;;1.60;;
68923;SDS011;55961;52.156;20.942;2023-08-31T08:15:28;4.60;;;1.70;;
68923;SDS011;55961;52.156;20.942;2023-08-31T08:17:55;4.88;;;1.48;;
68923;SDS011;55961;52.156;20.942;2023-08-31T08:20:22;6.77;;;1.93;;
68923;SDS011;55961;52.156;20.942;2023-08-31T08:22:49;6.25;;;1.95;;
68923;SDS011;55961;52.156;20.942;2023-08-31T08:25:19;4.35;;;1.90;;
68923;SDS011;55961;52.156;20.942;2023-08-31T08:27:46;4.35;;;1.65;;
68923;SDS011;55961;52.156;20.942;2023-08-31T08:30:12;3.72;;;1.42;;
68923;SDS011;55961;52.156;20.942;2023-08-31T08:32:39;5.17;;;1.53;;
68923;SDS011;55961;52.156;20.942;2023-08-31T08:35:05;4.28;;;1.40;;
68923;SDS011;55961;52.156;20.942;2023-08-31T08:37:31;3.72;;;1.70;;
68923;SDS011;55961;52.156;20.942;2023-08-31T08:39:58;3.53;;;1.42;;
68923;SDS011;55961;52.156;20.942;2023-08-31T08:42:24;3.93;;;1.43;;
68923;SDS011;55961;52.156;20.942;2023-08-31T08:44:51;3.13;;;1.40;;
68923;SDS011;55961;52.156;20.942;2023-08-31T08:47:18;3.80;;;1.50;;
68923;SDS011;55961;52.156;20.942;2023-08-31T08:49:44;3.70;;;1.50;;
68923;SDS011;55961;52.156;20.942;2023-08-31T08:52:10;5.20;;;1.50;;
68923;SDS011;55961;52.156;20.942;2023-08-31T08:54:38;5.70;;;1.87;;
68923;SDS011;55961;52.156;20.942;2023-08-31T08:57:04;3.47;;;1.48;;
68923;SDS011;55961;52.156;20.942;2023-08-31T08:59:30;3.53;;;1.67;;
68923;SDS011;55961;52.156;20.942;2023-08-31T09:01:57;3.50;;;1.48;;
68923;SDS011;55961;52.156;20.942;2023-08-31T09:04:23;4.10;;;1.83;;
68923;SDS011;55961;52.156;20.942;2023-08-31T09:06:51;3.90;;;1.65;;
68923;SDS011;55961;52.156;20.942;2023-08-31T09:09:17;3.58;;;2.15;;
68923;SDS011;55961;52.156;20.942;2023-08-31T09:11:44;3.55;;;1.95;;
68923;SDS011;55961;52.156;20.942;2023-08-31T09:14:17;3.77;;;1.40;;
68923;SDS011;55961;52.156;20.942;2023-08-31T09:16:45;5.43;;;2.00;;
68923;SDS011;55961;52.156;20.942;2023-08-31T09:19:19;2.97;;;1.58;;
68923;SDS011;55961;52.156;20.942;2023-08-31T09:21:47;3.75;;;1.80;;
68923;SDS011;55961;52.156;20.942;2023-08-31T09:24:14;4.53;;;1.70;;
68923;SDS011;55961;52.156;20.942;2023-08-31T09:26:47;2.93;;;1.63;;
68923;SDS011;55961;52.156;20.942;2023-08-31T09:29:24;3.42;;;1.60;;
68923;SDS011;55961;52.156;20.942;2023-08-31T09:31:50;3.38;;;1.73;;
68923;SDS011;55961;52.156;20.942;2023-08-31T09:34:17;3.35;;;1.70;;
68923;SDS011;55961;52.156;20.942;2023-08-31T09:36:43;4.05;;;1.77;;
68923;SDS011;55961;52.156;20.942;2023-08-31T09:39:09;3.27;;;1.80;;
68923;SDS011;55961;52.156;20.942;2023-08-31T09:41:52;6.20;;;2.33;;
68923;SDS011;55961;52.156;20.942;2023-08-31T09:44:20;4.18;;;1.88;;
68923;SDS011;55961;52.156;20.942;2023-08-31T09:46:47;5.72;;;1.98;;
68923;SDS011;55961;52.156;20.942;2023-08-31T09:49:14;4.03;;;2.00;;
68923;SDS011;55961;52.156;20.942;2023-08-31T09:51:45;4.97;;;2.10;;
68923;SDS011;55961;52.156;20.942;2023-08-31T09:54:13;5.32;;;1.80;;
68923;SDS011;55961;52.156;20.942;2023-08-31T09:56:44;6.10;;;2.00;;
68923;SDS011;55961;52.156;20.942;2023-08-31T09:59:11;4.78;;;1.73;;
68923;SDS011;55961;52.156;20.942;2023-08-31T10:01:42;5.63;;;2.15;;
68923;SDS011;55961;52.156;20.942;2023-08-31T10:04:12;4.20;;;1.70;;
68923;SDS011;55961;52.156;20.942;2023-08-31T10:06:39;4.38;;;1.92;;
68923;SDS011;55961;52.156;20.942;2023-08-31T10:09:06;4.22;;;1.80;;
68923;SDS011;55961;52.156;20.942;2023-08-31T10:11:35;4.10;;;2.30;;
68923;SDS011;55961;52.156;20.942;2023-08-31T10:14:03;6.50;;;1.85;;
68923;SDS011;55961;52.156;20.942;2023-08-31T10:16:30;4.40;;;2.30;;
68923;SDS011;55961;52.156;20.942;2023-08-31T10:18:57;3.90;;;2.28;;
68923;SDS011;55961;52.156;20.942;2023-08-31T10:21:23;4.32;;;1.92;;
68923;SDS011;55961;52.156;20.942;2023-08-31T10:23:50;5.60;;;2.20;;
68923;SDS011;55961;52.156;20.942;2023-08-31T10:26:29;3.90;;;2.30;;
68923;SDS011;55961;52.156;20.942;2023-08-31T10:28:57;5.03;;;2.60;;
68923;SDS011;55961;52.156;20.942;2023-08-31T10:31:27;3.97;;;2.40;;
68923;SDS011;55961;52.156;20.942;2023-08-31T10:34:04;4.97;;;2.25;;
68923;SDS011;55961;52.156;20.942;2023-08-31T10:36:36;3.10;;;1.98;;
68923;SDS011;55961;52.156;20.942;2023-08-31T10:39:20;5.20;;;2.35;;
68923;SDS011;55961;52.156;20.942;2023-08-31T10:41:56;4.10;;;2.03;;
68923;SDS011;55961;52.156;20.942;2023-08-31T10:44:26;6.70;;;2.83;;
68923;SDS011;55961;52.156;20.942;2023-08-31T10:46:55;5.72;;;2.53;;
68923;SDS011;55961;52.156;20.942;2023-08-31T10:49:25;6.50;;;2.00;;
68923;SDS011;55961;52.156;20.942;2023-08-31T10:51:58;4.40;;;2.42;;
68923;SDS011;55961;52.156;20.942;2023-08-31T10:54:45;5.90;;;2.40;;
68923;SDS011;55961;52.156;20.942;2023-08-31T10:57:13;5.10;;;2.22;;
68923;SDS011;55961;52.156;20.942;2023-08-31T11:05:16;4.55;;;2.40;;
68923;SDS011;55961;52.156;20.942;2023-08-31T11:07:46;5.37;;;2.87;;
68923;SDS011;55961;52.156;20.942;2023-08-31T11:10:17;3.83;;;2.33;;
68923;SDS011;55961;52.156;20.942;2023-08-31T11:12:53;4.10;;;2.38;;
68923;SDS011;55961;52.156;20.942;2023-08-31T11:15:20;4.30;;;2.60;;
68923;SDS011;55961;52.156;20.942;2023-08-31T11:17:49;5.05;;;2.80;;
68923;SDS011;55961;52.156;20.942;2023-08-31T11:20:17;5.90;;;2.70;;
68923;SDS011;55961;52.156;20.942;2023-08-31T11:22:50;5.10;;;2.85;;
68923;SDS011;55961;52.156;20.942;2023-08-31T11:25:19;4.82;;;2.72;;
68923;SDS011;55961;52.156;20.942;2023-08-31T11:27:53;5.32;;;2.33;;
68923;SDS011;55961;52.156;20.942;2023-08-31T11:30:27;3.50;;;2.47;;
68923;SDS011;55961;52.156;20.942;2023-08-31T11:32:57;4.87;;;2.90;;
68923;SDS011;55961;52.156;20.942;2023-08-31T11:35:31;5.05;;;2.70;;
68923;SDS011;55961;52.156;20.942;2023-08-31T11:38:02;4.32;;;2.60;;
68923;SDS011;55961;52.156;20.942;2023-08-31T11:40:29;4.53;;;2.63;;
68923;SDS011;55961;52.156;20.942;2023-08-31T11:42:56;4.00;;;2.80;;
68923;SDS011;55961;52.156;20.942;2023-08-31T11:45:22;4.13;;;2.90;;
68923;SDS011;55961;52.156;20.942;2023-08-31T11:47:49;6.03;;;2.60;;
68923;SDS011;55961;52.156;20.942;2023-08-31T11:50:16;5.43;;;3.00;;
68923;SDS011;55961;52.156;20.942;2023-08-31T11:52:44;4.82;;;2.90;;
68923;SDS011;55961;52.156;20.942;2023-08-31T11:55:13;4.83;;;3.00;;
68923;SDS011;55961;52.156;20.942;2023-08-31T11:57:40;4.25;;;2.70;;
68923;SDS011;55961;52.156;20.942;2023-08-31T12:00:12;5.45;;;2.85;;
68923;SDS011;55961;52.156;20.942;2023-08-31T12:02:42;6.53;;;3.10;;
68923;SDS011;55961;52.156;20.942;2023-08-31T12:05:11;4.65;;;2.88;;
68923;SDS011;55961;52.156;20.942;2023-08-31T12:07:40;4.77;;;2.90;;
68923;SDS011;55961;52.156;20.942;2023-08-31T12:10:07;4.68;;;3.10;;
68923;SDS011;55961;52.156;20.942;2023-08-31T12:12:34;5.85;;;3.05;;
68923;SDS011;55961;52.156;20.942;2023-08-31T12:15:02;3.72;;;2.58;;
68923;SDS011;55961;52.156;20.942;2023-08-31T12:17:31;6.30;;;3.03;;
68923;SDS011;55961;52.156;20.942;2023-08-31T12:20:04;5.67;;;2.83;;
68923;SDS011;55961;52.156;20.942;2023-08-31T12:22:31;9.15;;;3.15;;
68923;SDS011;55961;52.156;20.942;2023-08-31T12:24:57;6.68;;;2.95;;
68923;SDS011;55961;52.156;20.942;2023-08-31T12:27:23;5.05;;;3.33;;
68923;SDS011;55961;52.156;20.942;2023-08-31T12:29:49;8.27;;;3.27;;
68923;SDS011;55961;52.156;20.942;2023-08-31T12:32:16;4.78;;;3.00;;
68923;SDS011;55961;52.156;20.942;2023-08-31T12:34:44;4.43;;;2.72;;
68923;SDS011;55961;52.156;20.942;2023-08-31T12:37:11;6.28;;;2.83;;
68923;SDS011;55961;52.156;20.942;2023-08-31T12:39:37;4.57;;;3.00;;
68923;SDS011;55961;52.156;20.942;2023-08-31T12:42:03;9.70;;;3.22;;
68923;SDS011;55961;52.156;20.942;2023-08-31T12:44:30;4.47;;;3.13;;
68923;SDS011;55961;52.156;20.942;2023-08-31T12:46:56;4.88;;;3.00;;
68923;SDS011;55961;52.156;20.942;2023-08-31T12:49:22;4.67;;;3.17;;
68923;SDS011;55961;52.156;20.942;2023-08-31T12:51:48;5.07;;;3.20;;
68923;SDS011;55961;52.156;20.942;2023-08-31T12:54:16;8.25;;;2.90;;
68923;SDS011;55961;52.156;20.942;2023-08-31T12:56:42;7.72;;;3.20;;
68923;SDS011;55961;52.156;20.942;2023-08-31T12:59:08;4.45;;;3.00;;
68923;SDS011;55961;52.156;20.942;2023-08-31T13:01:34;4.00;;;2.67;;
68923;SDS011;55961;52.156;20.942;2023-08-31T13:04:01;5.22;;;2.50;;
68923;SDS011;55961;52.156;20.942;2023-08-31T13:06:28;4.70;;;3.20;;
68923;SDS011;55961;52.156;20.942;2023-08-31T13:08:54;6.00;;;3.15;;
68923;SDS011;55961;52.156;20.942;2023-08-31T13:11:20;6.10;;;3.20;;
68923;SDS011;55961;52.156;20.942;2023-08-31T13:13:49;4.97;;;3.28;;
68923;SDS011;55961;52.156;20.942;2023-08-31T13:16:18;5.88;;;2.83;;
68923;SDS011;55961;52.156;20.942;2023-08-31T13:18:44;4.70;;;2.85;;
68923;SDS011;55961;52.156;20.942;2023-08-31T13:21:10;4.90;;;2.83;;
68923;SDS011;55961;52.156;20.942;2023-08-31T13:23:36;6.13;;;3.20;;
68923;SDS011;55961;52.156;20.942;2023-08-31T13:26:02;4.78;;;3.03;;
68923;SDS011;55961;52.156;20.942;2023-08-31T13:28:28;4.40;;;2.85;;
68923;SDS011;55961;52.156;20.942;2023-08-31T13:30:55;4.10;;;2.70;;
68923;SDS011;55961;52.156;20.942;2023-08-31T13:33:22;4.37;;;2.60;;
68923;SDS011;55961;52.156;20.942;2023-08-31T13:35:49;5.03;;;3.15;;
68923;SDS011;55961;52.156;20.942;2023-08-31T13:38:15;6.13;;;3.72;;
68923;SDS011;55961;52.156;20.942;2023-08-31T13:40:43;4.50;;;2.42;;
68923;SDS011;55961;52.156;20.942;2023-08-31T13:43:08;4.40;;;3.20;;
68923;SDS011;55961;52.156;20.942;2023-08-31T13:45:34;4.83;;;2.63;;
68923;SDS011;55961;52.156;20.942;2023-08-31T13:48:00;5.15;;;2.85;;
68923;SDS011;55961;52.156;20.942;2023-08-31T13:50:26;4.23;;;2.70;;
68923;SDS011;55961;52.156;20.942;2023-08-31T13:52:53;5.70;;;3.10;;
68923;SDS011;55961;52.156;20.942;2023-08-31T13:55:19;10.38;;;3.15;;
68923;SDS011;55961;52.156;20.942;2023-08-31T13:57:45;4.90;;;2.63;;
68923;SDS011;55961;52.156;20.942;2023-08-31T14:00:11;6.27;;;2.67;;
68923;SDS011;55961;52.156;20.942;2023-08-31T14:02:38;5.32;;;2.70;;
68923;SDS011;55961;52.156;20.942;2023-08-31T14:05:04;5.85;;;2.80;;
68923;SDS011;55961;52.156;20.942;2023-08-31T14:07:32;5.65;;;2.92;;
68923;SDS011;55961;52.156;20.942;2023-08-31T14:09:58;4.72;;;2.70;;
68923;SDS011;55961;52.156;20.942;2023-08-31T14:12:24;4.87;;;2.60;;
68923;SDS011;55961;52.156;20.942;2023-08-31T14:14:51;7.60;;;2.92;;
68923;SDS011;55961;52.156;20.942;2023-08-31T14:17:18;5.78;;;3.25;;
68923;SDS011;55961;52.156;20.942;2023-08-31T14:19:44;4.93;;;3.00;;
68923;SDS011;55961;52.156;20.942;2023-08-31T14:22:10;6.30;;;3.15;;
68923;SDS011;55961;52.156;20.942;2023-08-31T14:24:37;5.30;;;3.60;;
68923;SDS011;55961;52.156;20.942;2023-08-31T14:27:03;6.55;;;3.13;;
68923;SDS011;55961;52.156;20.942;2023-08-31T14:29:29;7.00;;;3.08;;
68923;SDS011;55961;52.156;20.942;2023-08-31T14:31:55;4.88;;;2.63;;
68923;SDS011;55961;52.156;20.942;2023-08-31T14:34:21;5.83;;;2.80;;
68923;SDS011;55961;52.156;20.942;2023-08-31T14:36:48;5.32;;;3.22;;
68923;SDS011;55961;52.156;20.942;2023-08-31T14:39:13;4.85;;;2.70;;
68923;SDS011;55961;52.156;20.942;2023-08-31T14:41:43;5.30;;;3.03;;
68923;SDS011;55961;52.156;20.942;2023-08-31T14:44:09;5.37;;;3.57;;
68923;SDS011;55961;52.156;20.942;2023-08-31T14:46:35;7.30;;;3.58;;
68923;SDS011;55961;52.156;20.942;2023-08-31T14:49:01;5.80;;;3.83;;
68923;SDS011;55961;52.156;20.942;2023-08-31T14:51:27;6.43;;;4.38;;
68923;SDS011;55961;52.156;20.942;2023-08-31T14:53:53;8.27;;;4.85;;